Terminal Aerodrome Forecast
Issued by NWS Melbourne, FL

Home | Current Version | Previous Version | Text Only | Print | Product List | Glossary On
Versions: 1 2 3 4 5 6 7 8 9 10 11 12 13 14 15 16 17 18 19 20 21 22 23 24 25 26 27 28 29 30 31 32 33 34 35 36 37 38 39 40 41 42
000
FTUS42 KMLB 122338
TAFDAB
TAF
KDAB 122338Z 1300/1324 08011KT P6SM VCSH SCT020 BKN040 OVC080
      TEMPO 1300/1304 5SM -RA BKN015 OVC040
     FM130800 12006KT P6SM VCSH FEW030 BKN060 OVC120
      TEMPO 1308/1311 5SM RA BKN010
     FM131500 18009KT P6SM SCT030 BKN050 OVC100
     FM132100 21008KT P6SM VCSH SCT025 BKN060=

USA.gov is the U.S. government's official web portal to all federal, state and local government web resources and services.